createdAt,value
2022-09-12T00:01:19.643Z,10.10
2022-09-12T00:03:46.714Z,8.23
2022-09-12T00:06:22.593Z,9.98
2022-09-12T00:08:49.928Z,11.20
2022-09-12T00:11:16.562Z,9.52
2022-09-12T00:13:43.345Z,9.27
2022-09-12T00:16:19.637Z,9.98
2022-09-12T00:18:47.288Z,10.38
2022-09-12T00:21:15.246Z,9.27
2022-09-12T00:23:43.311Z,8.77
2022-09-12T00:26:10.243Z,8.35
2022-09-12T00:28:39.292Z,8.50
2022-09-12T00:31:15.319Z,9.65
2022-09-12T00:33:42.368Z,10.20
2022-09-12T00:36:12.946Z,11.25
2022-09-12T00:38:43.330Z,8.18
2022-09-12T00:41:21.982Z,8.38
2022-09-12T00:44:23.798Z,7.10
2022-09-12T00:47:04.194Z,8.02
2022-09-12T00:49:43.016Z,6.90
2022-09-12T00:52:13.777Z,8.25
2022-09-12T00:54:49.131Z,8.48
2022-09-12T00:57:17.913Z,7.17
2022-09-12T00:59:58.110Z,7.30
2022-09-12T01:02:25.735Z,8.90
2022-09-12T01:04:53.099Z,8.10
2022-09-12T01:07:21.404Z,7.28
2022-09-12T01:09:48.167Z,6.63
2022-09-12T01:12:16.071Z,7.10
2022-09-12T01:14:42.915Z,7.85
2022-09-12T01:17:13.789Z,9.70
2022-09-12T01:20:15.541Z,9.20
2022-09-12T01:22:42.046Z,9.55
2022-09-12T01:25:31.652Z,8.02
2022-09-12T01:28:29.682Z,9.50
2022-09-12T01:31:22.655Z,8.55
2022-09-12T01:34:07.487Z,14.05
2022-09-12T01:37:07.427Z,9.95
2022-09-12T01:39:40.179Z,9.30
2022-09-12T01:42:35.167Z,10.95
2022-09-12T01:45:22.357Z,11.63
2022-09-12T01:48:01.278Z,13.77
2022-09-12T01:50:33.980Z,9.93
2022-09-12T01:53:31.030Z,10.10
2022-09-12T01:58:51.719Z,11.43
2022-09-12T02:01:24.758Z,10.93
2022-09-12T02:04:09.723Z,13.68
2022-09-12T02:06:42.960Z,11.60
2022-09-12T02:09:18.703Z,9.13
2022-09-12T02:11:46.605Z,10.00
2022-09-12T02:14:20.769Z,14.60
2022-09-12T02:16:54.567Z,10.90
2022-09-12T02:19:24.739Z,11.48
2022-09-12T02:21:56.244Z,10.15
2022-09-12T02:24:34.084Z,10.82
2022-09-12T02:27:25.015Z,12.10
2022-09-12T02:29:52.364Z,9.07
2022-09-12T02:32:30.184Z,10.90
2022-09-12T02:35:08.152Z,11.68
2022-09-12T02:38:18.941Z,12.20
2022-09-12T02:40:47.539Z,16.08
2022-09-12T02:43:14.170Z,11.23
2022-09-12T02:45:41.229Z,8.80
2022-09-12T02:48:15.784Z,9.13
2022-09-12T02:50:43.409Z,11.38
2022-09-12T02:53:11.820Z,11.57
2022-09-12T02:55:42.114Z,12.20
2022-09-12T02:58:16.951Z,8.68
2022-09-12T03:01:09.785Z,13.10
2022-09-12T03:03:59.968Z,13.65
2022-09-12T03:06:26.538Z,9.18
2022-09-12T03:09:11.421Z,13.45
2022-09-12T03:11:52.592Z,9.00
2022-09-12T03:14:40.055Z,10.30
2022-09-12T03:17:51.242Z,12.07
2022-09-12T03:20:51.588Z,11.95
2022-09-12T03:23:25.857Z,13.18
2022-09-12T03:26:19.145Z,13.82
2022-09-12T03:28:50.744Z,13.00
2022-09-12T03:31:19.609Z,11.55
2022-09-12T03:33:46.639Z,17.58
2022-09-12T03:36:19.015Z,19.20
2022-09-12T03:38:45.705Z,16.55
2022-09-12T03:41:12.337Z,18.73
2022-09-12T03:43:39.014Z,18.10
2022-09-12T03:46:05.832Z,17.40
2022-09-12T03:48:32.477Z,16.67
2022-09-12T14:41:37.306Z,18.40
2022-09-12T14:44:08.433Z,11.73
2022-09-12T14:46:37.075Z,5.38
2022-09-12T14:49:15.773Z,5.65
2022-09-12T14:51:51.582Z,60.75
2022-09-12T14:54:40.290Z,73.10
2022-09-12T14:57:39.104Z,132.85
2022-09-12T15:00:11.922Z,71.68
2022-09-12T15:02:42.604Z,20.75
2022-09-12T15:05:09.167Z,17.00
2022-09-12T15:07:51.411Z,9.70
2022-09-12T15:10:23.121Z,10.30
2022-09-12T15:12:50.019Z,10.75
2022-09-12T15:15:20.817Z,7.03
2022-09-12T15:17:47.675Z,6.63
2022-09-12T15:20:14.862Z,9.68
2022-09-12T15:22:43.861Z,13.63
2022-09-12T15:25:12.445Z,9.25
2022-09-12T15:27:42.423Z,12.38
2022-09-12T15:30:11.112Z,10.40
2022-09-12T15:32:37.712Z,10.05
2022-09-12T15:35:10.276Z,16.90
2022-09-12T15:37:37.095Z,15.52
2022-09-12T15:40:05.394Z,16.95
2022-09-12T15:42:32.198Z,61.15
2022-09-12T15:45:02.562Z,40.10
2022-09-12T15:47:29.547Z,81.60
2022-09-12T15:49:56.115Z,52.70
2022-09-12T15:52:22.720Z,51.00
2022-09-12T15:54:49.272Z,61.35
2022-09-12T15:57:15.856Z,44.90
2022-09-12T15:59:44.144Z,82.57
2022-09-12T16:02:11.849Z,59.08
2022-09-12T16:04:38.455Z,64.55
2022-09-12T16:07:05.939Z,40.53
2022-09-12T16:09:32.628Z,41.25
2022-09-12T16:11:59.336Z,31.70
2022-09-12T16:14:26.752Z,32.03
2022-09-12T16:16:54.685Z,37.42
2022-09-12T16:19:21.608Z,38.85
2022-09-12T16:21:50.348Z,39.70
2022-09-12T16:24:17.179Z,49.28
2022-09-12T16:26:43.812Z,38.85
2022-09-12T16:29:12.959Z,42.15
2022-09-12T16:31:40.117Z,35.63
2022-09-12T16:34:07.186Z,30.48
2022-09-12T16:36:33.964Z,33.00
2022-09-12T16:39:00.570Z,44.33
2022-09-12T16:41:29.120Z,37.05
2022-09-12T16:43:56.223Z,36.95
2022-09-12T16:46:25.455Z,23.30
2022-09-12T16:48:54.034Z,21.52
2022-09-12T16:51:22.945Z,29.65
2022-09-12T16:53:50.151Z,42.78
2022-09-12T16:56:16.841Z,38.50
2022-09-12T16:58:43.717Z,44.22
2022-09-12T17:01:14.808Z,42.08
2022-09-12T17:03:42.290Z,39.40
2022-09-12T17:06:16.030Z,35.78
2022-09-12T17:08:45.452Z,35.55
2022-09-12T17:11:15.067Z,43.28
2022-09-12T17:14:03.356Z,81.53
2022-09-12T17:16:29.299Z,196.88
2022-09-12T17:18:55.911Z,359.45
2022-09-12T17:21:22.962Z,220.77
2022-09-12T17:23:49.900Z,122.72
2022-09-12T17:26:17.286Z,89.65
2022-09-12T17:28:44.201Z,101.57
2022-09-12T17:31:13.158Z,80.00
2022-09-12T17:33:40.043Z,66.90
2022-09-12T17:36:09.991Z,85.78
2022-09-12T17:38:38.615Z,132.98
2022-09-12T17:41:07.727Z,207.35
2022-09-12T17:43:35.978Z,178.02
2022-09-12T17:46:03.034Z,142.98
2022-09-12T17:48:30.416Z,188.65
2022-09-12T17:50:57.427Z,179.00
2022-09-12T17:53:23.979Z,170.95
2022-09-12T17:55:54.235Z,171.48
2022-09-12T17:58:21.047Z,167.93
2022-09-12T18:01:06.245Z,131.02
2022-09-12T18:03:35.160Z,109.38
2022-09-12T18:06:01.754Z,83.43
2022-09-12T18:08:28.357Z,71.55
2022-09-12T18:11:04.133Z,68.18
2022-09-12T18:13:33.415Z,65.22
2022-09-12T18:16:08.226Z,61.17
2022-09-12T18:18:37.395Z,64.50
2022-09-12T18:21:06.037Z,60.75
2022-09-12T18:23:33.422Z,51.40
2022-09-12T18:26:02.794Z,52.00
2022-09-12T18:28:31.754Z,62.03
2022-09-12T18:30:58.589Z,50.47
2022-09-12T18:33:25.310Z,96.63
2022-09-12T18:35:51.959Z,72.75
2022-09-12T18:38:18.546Z,65.38
2022-09-12T18:40:45.436Z,61.85
2022-09-12T18:43:12.060Z,44.55
2022-09-12T18:45:38.621Z,46.25
2022-09-12T18:48:12.535Z,38.30
2022-09-12T18:50:39.092Z,37.28
2022-09-12T18:53:05.743Z,36.33
2022-09-12T18:55:33.256Z,32.80
2022-09-12T18:57:59.845Z,34.08
2022-09-12T19:00:27.028Z,36.40
2022-09-12T19:02:53.685Z,25.23
2022-09-12T19:05:20.281Z,25.77
2022-09-12T19:07:46.862Z,33.17
2022-09-12T19:10:13.489Z,24.83
2022-09-12T19:12:40.103Z,21.75
2022-09-12T19:15:07.209Z,23.63
2022-09-12T19:17:33.835Z,25.90
2022-09-12T19:20:00.426Z,28.58
2022-09-12T19:22:27.568Z,28.90
2022-09-12T19:24:55.244Z,25.83
2022-09-12T19:27:22.022Z,39.83
2022-09-12T19:29:48.664Z,35.35
2022-09-12T19:32:15.515Z,33.20
2022-09-12T19:34:42.129Z,26.65
2022-09-12T19:37:08.859Z,26.85
2022-09-12T19:39:36.240Z,18.98
2022-09-12T19:42:03.008Z,25.08
2022-09-12T19:44:30.498Z,22.30
2022-09-12T19:46:57.539Z,18.30
2022-09-12T19:49:24.786Z,16.85
2022-09-12T19:51:51.427Z,19.50
2022-09-12T19:54:18.046Z,17.90
2022-09-12T19:56:44.684Z,18.52
2022-09-12T19:59:11.776Z,17.27
2022-09-12T20:01:38.553Z,39.72
2022-09-12T20:04:06.647Z,25.40
2022-09-12T20:06:33.479Z,34.83
2022-09-12T20:09:00.939Z,30.10
2022-09-12T20:11:27.489Z,23.48
2022-09-12T20:13:54.116Z,18.55
2022-09-12T20:16:26.694Z,24.73
2022-09-12T20:18:59.736Z,24.60
2022-09-12T20:21:32.257Z,23.95
2022-09-12T20:24:08.083Z,18.55
2022-09-12T20:26:34.725Z,16.25
2022-09-12T20:29:01.996Z,16.77
2022-09-12T20:31:28.856Z,16.70
2022-09-12T20:33:56.603Z,17.55
2022-09-12T20:36:23.747Z,23.75
2022-09-12T20:38:56.825Z,17.50
2022-09-12T20:41:25.620Z,20.10
2022-09-12T20:43:54.162Z,16.92
2022-09-12T20:46:22.494Z,17.48
2022-09-12T20:48:50.419Z,16.42
2022-09-12T20:51:17.026Z,9.52
2022-09-12T20:53:43.634Z,11.88
2022-09-12T20:56:10.334Z,15.07
2022-09-12T20:58:41.635Z,10.48
2022-09-12T21:01:11.731Z,16.20
2022-09-12T21:03:39.450Z,10.98
2022-09-12T21:06:07.101Z,13.65
2022-09-12T21:08:35.440Z,10.73
2022-09-12T21:11:02.174Z,12.77
2022-09-12T21:13:28.830Z,12.63
2022-09-12T21:16:04.692Z,12.27
2022-09-12T21:18:32.640Z,10.48
2022-09-12T21:20:59.480Z,11.38
2022-09-12T21:23:27.709Z,11.55
2022-09-12T21:25:54.520Z,15.02
2022-09-12T21:28:21.803Z,9.85
2022-09-12T21:30:49.813Z,15.70
2022-09-12T21:33:19.063Z,18.55
2022-09-12T21:35:47.357Z,16.52
2022-09-12T21:38:18.334Z,11.90
2022-09-12T21:40:45.981Z,12.85
2022-09-12T21:43:14.423Z,15.70
2022-09-12T21:45:41.051Z,13.70
2022-09-12T21:48:08.006Z,12.27
2022-09-12T21:50:34.626Z,10.40
2022-09-12T21:53:01.737Z,9.93
2022-09-12T21:55:28.334Z,12.85
2022-09-12T21:57:55.542Z,10.32
2022-09-12T22:00:22.892Z,11.60
2022-09-12T22:02:49.563Z,9.02
2022-09-12T22:05:16.801Z,9.57
2022-09-12T22:07:43.449Z,11.35
2022-09-12T22:10:10.477Z,10.02
2022-09-12T22:12:37.070Z,10.80
2022-09-12T22:15:22.939Z,12.98
2022-09-12T22:17:51.560Z,11.63
2022-09-12T22:20:19.088Z,11.18
2022-09-12T22:23:04.143Z,13.10
2022-09-12T22:25:31.025Z,12.73
2022-09-12T22:27:58.308Z,11.60
2022-09-12T22:30:27.292Z,13.52
2022-09-12T22:32:54.066Z,12.55
2022-09-12T22:35:21.010Z,11.02
2022-09-12T22:37:47.918Z,15.07
2022-09-12T22:40:16.451Z,12.23
2022-09-12T22:42:43.854Z,13.98
2022-09-12T22:45:10.724Z,10.68
2022-09-12T22:47:37.468Z,13.00
2022-09-12T22:50:04.483Z,16.15
2022-09-12T22:52:31.055Z,15.30
2022-09-12T22:54:57.672Z,10.30
2022-09-12T22:57:24.267Z,20.83
2022-09-12T22:59:50.898Z,11.23
2022-09-12T23:02:18.275Z,17.42
2022-09-12T23:04:46.720Z,12.05
2022-09-12T23:07:13.297Z,13.30
2022-09-12T23:09:40.747Z,10.93
2022-09-12T23:12:07.459Z,13.45
2022-09-12T23:14:34.237Z,14.80
2022-09-12T23:17:00.833Z,13.63
2022-09-12T23:19:27.393Z,13.48
2022-09-12T23:21:53.956Z,12.05
2022-09-12T23:24:22.920Z,14.07
2022-09-12T23:26:49.486Z,12.77
2022-09-12T23:29:16.228Z,11.80
2022-09-12T23:31:44.490Z,14.13
2022-09-12T23:34:11.138Z,11.80
2022-09-12T23:36:37.824Z,13.30
2022-09-12T23:39:04.829Z,9.13
2022-09-12T23:41:31.553Z,10.85
2022-09-12T23:43:58.194Z,10.60
2022-09-12T23:46:24.934Z,9.35
2022-09-12T23:48:53.316Z,11.40
2022-09-12T23:51:21.726Z,9.20
2022-09-12T23:53:48.946Z,8.57
2022-09-12T23:56:16.102Z,8.10
2022-09-12T23:58:42.736Z,10.05
